sensor_id;sensor_type;location;lat;lon;timestamp;temperature;humidity
28247;DHT22;34504;53.178;22.058;2022-09-02T00:01:29;11.00;87.60
28247;DHT22;34504;53.178;22.058;2022-09-02T00:03:59;11.00;88.00
28247;DHT22;34504;53.178;22.058;2022-09-02T00:06:28;10.90;88.20
28247;DHT22;34504;53.178;22.058;2022-09-02T00:08:56;10.90;88.30
28247;DHT22;34504;53.178;22.058;2022-09-02T00:11:28;10.80;88.40
28247;DHT22;34504;53.178;22.058;2022-09-02T00:13:56;10.80;88.60
28247;DHT22;34504;53.178;22.058;2022-09-02T00:16:24;10.80;89.30
28247;DHT22;34504;53.178;22.058;2022-09-02T00:18:53;10.80;88.80
28247;DHT22;34504;53.178;22.058;2022-09-02T00:21:22;10.80;88.70
28247;DHT22;34504;53.178;22.058;2022-09-02T00:23:52;10.70;88.70
28247;DHT22;34504;53.178;22.058;2022-09-02T00:26:20;10.70;88.80
28247;DHT22;34504;53.178;22.058;2022-09-02T00:28:48;10.70;88.80
28247;DHT22;34504;53.178;22.058;2022-09-02T00:31:23;10.70;89.10
28247;DHT22;34504;53.178;22.058;2022-09-02T00:33:51;10.60;89.50
28247;DHT22;34504;53.178;22.058;2022-09-02T00:36:20;10.60;89.60
28247;DHT22;34504;53.178;22.058;2022-09-02T00:38:48;10.60;89.60
28247;DHT22;34504;53.178;22.058;2022-09-02T00:41:17;10.60;89.50
28247;DHT22;34504;53.178;22.058;2022-09-02T00:46:17;10.50;90.10
28247;DHT22;34504;53.178;22.058;2022-09-02T00:51:23;10.40;90.00
28247;DHT22;34504;53.178;22.058;2022-09-02T00:53:53;10.40;90.00
28247;DHT22;34504;53.178;22.058;2022-09-02T00:56:25;10.40;90.00
28247;DHT22;34504;53.178;22.058;2022-09-02T00:58:54;10.40;90.00
28247;DHT22;34504;53.178;22.058;2022-09-02T01:01:22;10.40;90.00
28247;DHT22;34504;53.178;22.058;2022-09-02T01:03:50;10.40;90.40
28247;DHT22;34504;53.178;22.058;2022-09-02T01:06:19;10.40;90.20
28247;DHT22;34504;53.178;22.058;2022-09-02T01:08:50;10.40;90.20
28247;DHT22;34504;53.178;22.058;2022-09-02T01:11:21;10.40;90.10
28247;DHT22;34504;53.178;22.058;2022-09-02T01:13:49;10.30;90.10
28247;DHT22;34504;53.178;22.058;2022-09-02T01:16:22;10.30;90.20
28247;DHT22;34504;53.178;22.058;2022-09-02T01:18:53;10.30;90.20
28247;DHT22;34504;53.178;22.058;2022-09-02T01:21:22;10.30;90.10
28247;DHT22;34504;53.178;22.058;2022-09-02T01:23:50;10.30;90.10
28247;DHT22;34504;53.178;22.058;2022-09-02T01:26:19;10.30;90.20
28247;DHT22;34504;53.178;22.058;2022-09-02T01:28:46;10.30;90.20
28247;DHT22;34504;53.178;22.058;2022-09-02T01:31:14;10.20;90.30
28247;DHT22;34504;53.178;22.058;2022-09-02T01:33:42;10.20;90.50
28247;DHT22;34504;53.178;22.058;2022-09-02T01:36:11;10.10;90.40
28247;DHT22;34504;53.178;22.058;2022-09-02T01:38:40;10.10;90.40
28247;DHT22;34504;53.178;22.058;2022-09-02T01:41:08;10.00;90.40
28247;DHT22;34504;53.178;22.058;2022-09-02T01:43:37;10.00;90.50
28247;DHT22;34504;53.178;22.058;2022-09-02T01:46:04;9.90;90.60
28247;DHT22;34504;53.178;22.058;2022-09-02T01:48:33;9.90;90.70
28247;DHT22;34504;53.178;22.058;2022-09-02T01:51:01;9.80;90.80
28247;DHT22;34504;53.178;22.058;2022-09-02T01:53:30;9.80;91.10
28247;DHT22;34504;53.178;22.058;2022-09-02T01:55:59;9.70;91.00
28247;DHT22;34504;53.178;22.058;2022-09-02T01:58:31;9.70;91.00
28247;DHT22;34504;53.178;22.058;2022-09-02T02:00:59;9.70;91.10
28247;DHT22;34504;53.178;22.058;2022-09-02T02:03:28;9.70;91.20
28247;DHT22;34504;53.178;22.058;2022-09-02T02:05:58;9.70;91.20
28247;DHT22;34504;53.178;22.058;2022-09-02T02:08:27;9.70;91.30
28247;DHT22;34504;53.178;22.058;2022-09-02T02:10:58;9.60;91.10
28247;DHT22;34504;53.178;22.058;2022-09-02T02:13:28;9.60;91.20
28247;DHT22;34504;53.178;22.058;2022-09-02T02:15:57;9.60;91.30
28247;DHT22;34504;53.178;22.058;2022-09-02T02:18:25;9.60;91.20
28247;DHT22;34504;53.178;22.058;2022-09-02T02:20:53;9.50;91.20
28247;DHT22;34504;53.178;22.058;2022-09-02T02:23:21;9.50;91.20
28247;DHT22;34504;53.178;22.058;2022-09-02T02:25:51;9.50;91.20
28247;DHT22;34504;53.178;22.058;2022-09-02T02:28:18;9.50;91.40
28247;DHT22;34504;53.178;22.058;2022-09-02T02:30:47;9.50;91.40
28247;DHT22;34504;53.178;22.058;2022-09-02T02:33:15;9.50;91.50
28247;DHT22;34504;53.178;22.058;2022-09-02T02:35:43;9.50;91.40
28247;DHT22;34504;53.178;22.058;2022-09-02T02:38:11;9.50;91.40
28247;DHT22;34504;53.178;22.058;2022-09-02T02:40:42;9.50;91.30
28247;DHT22;34504;53.178;22.058;2022-09-02T02:43:10;9.50;91.30
28247;DHT22;34504;53.178;22.058;2022-09-02T02:45:37;9.50;91.30
28247;DHT22;34504;53.178;22.058;2022-09-02T02:48:06;9.50;91.20
28247;DHT22;34504;53.178;22.058;2022-09-02T02:50:34;9.40;91.20
28247;DHT22;34504;53.178;22.058;2022-09-02T02:53:01;9.40;91.10
28247;DHT22;34504;53.178;22.058;2022-09-02T02:55:30;9.40;91.20
28247;DHT22;34504;53.178;22.058;2022-09-02T02:57:58;9.30;91.30
28247;DHT22;34504;53.178;22.058;2022-09-02T03:00:27;9.20;91.30
28247;DHT22;34504;53.178;22.058;2022-09-02T03:03:00;9.30;91.50
28247;DHT22;34504;53.178;22.058;2022-09-02T03:05:28;9.30;91.50
28247;DHT22;34504;53.178;22.058;2022-09-02T03:07:57;9.30;91.70
28247;DHT22;34504;53.178;22.058;2022-09-02T03:10:26;9.20;91.60
28247;DHT22;34504;53.178;22.058;2022-09-02T03:12:54;9.20;91.50
28247;DHT22;34504;53.178;22.058;2022-09-02T03:15:22;9.20;91.60
28247;DHT22;34504;53.178;22.058;2022-09-02T03:17:52;9.30;91.70
28247;DHT22;34504;53.178;22.058;2022-09-02T03:20:22;9.30;91.70
28247;DHT22;34504;53.178;22.058;2022-09-02T03:22:54;9.30;91.60
28247;DHT22;34504;53.178;22.058;2022-09-02T03:25:23;9.30;91.60
28247;DHT22;34504;53.178;22.058;2022-09-02T03:27:54;9.20;91.50
28247;DHT22;34504;53.178;22.058;2022-09-02T03:30:23;9.20;91.60
28247;DHT22;34504;53.178;22.058;2022-09-02T03:32:55;9.20;91.60
28247;DHT22;34504;53.178;22.058;2022-09-02T03:35:32;9.20;91.50
28247;DHT22;34504;53.178;22.058;2022-09-02T03:38:00;9.20;91.50
28247;DHT22;34504;53.178;22.058;2022-09-02T03:40:28;9.10;91.50
28247;DHT22;34504;53.178;22.058;2022-09-02T03:42:57;9.10;91.50
28247;DHT22;34504;53.178;22.058;2022-09-02T03:45:29;9.10;91.50
28247;DHT22;34504;53.178;22.058;2022-09-02T03:48:02;9.10;91.60
28247;DHT22;34504;53.178;22.058;2022-09-02T03:50:35;9.10;91.50
28247;DHT22;34504;53.178;22.058;2022-09-02T03:53:05;9.10;91.50
28247;DHT22;34504;53.178;22.058;2022-09-02T03:55:37;9.10;91.40
28247;DHT22;34504;53.178;22.058;2022-09-02T03:58:06;9.10;91.30
28247;DHT22;34504;53.178;22.058;2022-09-02T04:00:37;9.10;91.30
28247;DHT22;34504;53.178;22.058;2022-09-02T04:03:05;9.10;91.20
28247;DHT22;34504;53.178;22.058;2022-09-02T04:05:33;9.10;91.10
28247;DHT22;34504;53.178;22.058;2022-09-02T04:08:01;9.20;91.10
28247;DHT22;34504;53.178;22.058;2022-09-02T04:10:29;9.20;91.10
28247;DHT22;34504;53.178;22.058;2022-09-02T04:12:57;9.30;91.10
28247;DHT22;34504;53.178;22.058;2022-09-02T04:15:25;9.30;91.00
28247;DHT22;34504;53.178;22.058;2022-09-02T04:17:53;9.40;91.00
28247;DHT22;34504;53.178;22.058;2022-09-02T04:20:23;9.40;90.90
28247;DHT22;34504;53.178;22.058;2022-09-02T04:22:51;9.40;91.10
28247;DHT22;34504;53.178;22.058;2022-09-02T04:25:19;9.40;90.90
28247;DHT22;34504;53.178;22.058;2022-09-02T04:27:54;9.50;90.90
28247;DHT22;34504;53.178;22.058;2022-09-02T04:30:22;9.60;91.00
28247;DHT22;34504;53.178;22.058;2022-09-02T04:32:52;9.60;90.80
28247;DHT22;34504;53.178;22.058;2022-09-02T04:35:20;9.70;90.80
28247;DHT22;34504;53.178;22.058;2022-09-02T04:37:48;9.70;90.80
28247;DHT22;34504;53.178;22.058;2022-09-02T04:40:17;9.80;90.90
28247;DHT22;34504;53.178;22.058;2022-09-02T04:42:45;9.80;91.10
28247;DHT22;34504;53.178;22.058;2022-09-02T04:45:13;9.80;91.20
28247;DHT22;34504;53.178;22.058;2022-09-02T04:47:41;9.80;91.60
28247;DHT22;34504;53.178;22.058;2022-09-02T04:50:14;9.90;91.90
28247;DHT22;34504;53.178;22.058;2022-09-02T04:52:56;10.00;91.90
28247;DHT22;34504;53.178;22.058;2022-09-02T04:55:25;10.10;91.80
28247;DHT22;34504;53.178;22.058;2022-09-02T04:57:53;10.10;91.90
28247;DHT22;34504;53.178;22.058;2022-09-02T05:00:21;10.20;92.20
28247;DHT22;34504;53.178;22.058;2022-09-02T05:02:50;10.30;91.90
28247;DHT22;34504;53.178;22.058;2022-09-02T05:05:20;10.30;91.90
28247;DHT22;34504;53.178;22.058;2022-09-02T05:07:50;10.40;92.10
28247;DHT22;34504;53.178;22.058;2022-09-02T05:10:19;10.40;92.00
28247;DHT22;34504;53.178;22.058;2022-09-02T05:12:47;10.50;91.90
28247;DHT22;34504;53.178;22.058;2022-09-02T05:15:15;10.60;91.80
28247;DHT22;34504;53.178;22.058;2022-09-02T05:17:44;10.70;91.60
28247;DHT22;34504;53.178;22.058;2022-09-02T05:20:12;10.70;91.50
28247;DHT22;34504;53.178;22.058;2022-09-02T05:22:41;10.80;91.50
28247;DHT22;34504;53.178;22.058;2022-09-02T05:25:10;10.80;91.60
28247;DHT22;34504;53.178;22.058;2022-09-02T05:27:38;10.90;91.60
28247;DHT22;34504;53.178;22.058;2022-09-02T05:30:07;10.90;91.50
28247;DHT22;34504;53.178;22.058;2022-09-02T05:32:35;11.10;91.70
28247;DHT22;34504;53.178;22.058;2022-09-02T05:35:05;11.10;91.70
28247;DHT22;34504;53.178;22.058;2022-09-02T05:37:34;11.20;92.00
28247;DHT22;34504;53.178;22.058;2022-09-02T05:40:05;11.40;91.70
28247;DHT22;34504;53.178;22.058;2022-09-02T05:42:35;11.50;91.50
28247;DHT22;34504;53.178;22.058;2022-09-02T05:45:04;11.60;91.30
28247;DHT22;34504;53.178;22.058;2022-09-02T05:47:33;11.60;91.30
28247;DHT22;34504;53.178;22.058;2022-09-02T05:50:03;11.60;91.50
28247;DHT22;34504;53.178;22.058;2022-09-02T05:52:35;11.80;91.60
28247;DHT22;34504;53.178;22.058;2022-09-02T05:55:03;11.90;91.20
28247;DHT22;34504;53.178;22.058;2022-09-02T05:57:34;12.00;91.20
28247;DHT22;34504;53.178;22.058;2022-09-02T06:00:06;12.00;90.90
28247;DHT22;34504;53.178;22.058;2022-09-02T06:02:41;12.00;91.00
28247;DHT22;34504;53.178;22.058;2022-09-02T06:05:24;12.10;90.90
28247;DHT22;34504;53.178;22.058;2022-09-02T06:08:03;12.20;90.60
28247;DHT22;34504;53.178;22.058;2022-09-02T06:10:31;12.10;90.80
28247;DHT22;34504;53.178;22.058;2022-09-02T06:13:00;12.20;91.00
28247;DHT22;34504;53.178;22.058;2022-09-02T06:15:32;12.40;91.10
28247;DHT22;34504;53.178;22.058;2022-09-02T06:18:01;12.50;90.60
28247;DHT22;34504;53.178;22.058;2022-09-02T06:20:30;12.60;90.30
28247;DHT22;34504;53.178;22.058;2022-09-02T06:23:00;12.80;90.00
28247;DHT22;34504;53.178;22.058;2022-09-02T06:25:28;12.90;90.00
28247;DHT22;34504;53.178;22.058;2022-09-02T06:27:57;13.00;89.80
28247;DHT22;34504;53.178;22.058;2022-09-02T06:30:27;13.00;89.30
28247;DHT22;34504;53.178;22.058;2022-09-02T06:32:56;13.00;88.00
28247;DHT22;34504;53.178;22.058;2022-09-02T06:35:24;13.10;87.90
28247;DHT22;34504;53.178;22.058;2022-09-02T06:37:52;13.10;87.50
28247;DHT22;34504;53.178;22.058;2022-09-02T06:40:21;13.20;87.30
28247;DHT22;34504;53.178;22.058;2022-09-02T06:42:49;13.20;86.60
28247;DHT22;34504;53.178;22.058;2022-09-02T06:45:29;13.20;85.80
28247;DHT22;34504;53.178;22.058;2022-09-02T06:48:01;13.20;85.50
28247;DHT22;34504;53.178;22.058;2022-09-02T06:50:39;13.30;86.10
28247;DHT22;34504;53.178;22.058;2022-09-02T06:53:07;13.30;86.10
28247;DHT22;34504;53.178;22.058;2022-09-02T06:55:38;13.40;85.80
28247;DHT22;34504;53.178;22.058;2022-09-02T06:58:06;13.40;86.20
28247;DHT22;34504;53.178;22.058;2022-09-02T07:00:37;13.50;86.20
28247;DHT22;34504;53.178;22.058;2022-09-02T07:03:07;13.50;86.00
28247;DHT22;34504;53.178;22.058;2022-09-02T07:08:29;13.60;85.80
28247;DHT22;34504;53.178;22.058;2022-09-02T07:10:58;13.70;85.50
28247;DHT22;34504;53.178;22.058;2022-09-02T07:13:27;13.60;85.30
28247;DHT22;34504;53.178;22.058;2022-09-02T07:15:57;13.70;85.20
28247;DHT22;34504;53.178;22.058;2022-09-02T07:18:26;13.70;85.40
28247;DHT22;34504;53.178;22.058;2022-09-02T07:20:55;13.80;84.90
28247;DHT22;34504;53.178;22.058;2022-09-02T07:23:24;13.80;84.60
28247;DHT22;34504;53.178;22.058;2022-09-02T07:25:54;13.90;83.90
28247;DHT22;34504;53.178;22.058;2022-09-02T07:28:23;13.90;84.50
28247;DHT22;34504;53.178;22.058;2022-09-02T07:30:51;13.90;82.40
28247;DHT22;34504;53.178;22.058;2022-09-02T07:33:27;14.00;82.80
28247;DHT22;34504;53.178;22.058;2022-09-02T07:35:57;14.10;81.60
28247;DHT22;34504;53.178;22.058;2022-09-02T07:38:27;14.10;82.80
28247;DHT22;34504;53.178;22.058;2022-09-02T07:40:57;14.20;82.50
28247;DHT22;34504;53.178;22.058;2022-09-02T07:43:32;14.30;80.90
28247;DHT22;34504;53.178;22.058;2022-09-02T07:46:03;14.30;80.20
28247;DHT22;34504;53.178;22.058;2022-09-02T07:48:33;14.40;79.70
28247;DHT22;34504;53.178;22.058;2022-09-02T07:51:03;14.40;80.20
28247;DHT22;34504;53.178;22.058;2022-09-02T07:53:33;14.50;79.30
28247;DHT22;34504;53.178;22.058;2022-09-02T07:56:02;14.50;80.10
28247;DHT22;34504;53.178;22.058;2022-09-02T07:58:30;14.50;76.30
28247;DHT22;34504;53.178;22.058;2022-09-02T08:01:01;14.50;76.80
28247;DHT22;34504;53.178;22.058;2022-09-02T08:03:29;14.60;75.90
28247;DHT22;34504;53.178;22.058;2022-09-02T08:05:58;14.70;75.20
28247;DHT22;34504;53.178;22.058;2022-09-02T08:08:28;14.70;74.80
28247;DHT22;34504;53.178;22.058;2022-09-02T08:10:57;14.80;74.80
28247;DHT22;34504;53.178;22.058;2022-09-02T08:13:25;14.80;75.50
28247;DHT22;34504;53.178;22.058;2022-09-02T08:15:55;14.90;72.80
28247;DHT22;34504;53.178;22.058;2022-09-02T08:18:23;14.90;73.10
28247;DHT22;34504;53.178;22.058;2022-09-02T08:20:52;14.90;70.30
28247;DHT22;34504;53.178;22.058;2022-09-02T08:23:21;14.90;69.60
28247;DHT22;34504;53.178;22.058;2022-09-02T08:26:04;15.00;70.90
28247;DHT22;34504;53.178;22.058;2022-09-02T08:28:33;15.10;71.40
28247;DHT22;34504;53.178;22.058;2022-09-02T08:31:05;15.10;72.60
28247;DHT22;34504;53.178;22.058;2022-09-02T08:33:35;15.20;71.00
28247;DHT22;34504;53.178;22.058;2022-09-02T08:36:07;15.20;67.80
28247;DHT22;34504;53.178;22.058;2022-09-02T08:38:38;15.20;67.40
28247;DHT22;34504;53.178;22.058;2022-09-02T08:41:26;15.30;68.40
28247;DHT22;34504;53.178;22.058;2022-09-02T08:43:58;15.40;67.70
28247;DHT22;34504;53.178;22.058;2022-09-02T08:46:29;15.50;65.40
28247;DHT22;34504;53.178;22.058;2022-09-02T08:48:59;15.50;66.10
28247;DHT22;34504;53.178;22.058;2022-09-02T08:51:40;15.60;62.90
28247;DHT22;34504;53.178;22.058;2022-09-02T08:56:54;15.60;59.40
28247;DHT22;34504;53.178;22.058;2022-09-02T08:59:24;15.70;58.10
28247;DHT22;34504;53.178;22.058;2022-09-02T09:07:21;15.90;60.80
28247;DHT22;34504;53.178;22.058;2022-09-02T09:12:46;16.00;59.80
28247;DHT22;34504;53.178;22.058;2022-09-02T09:15:30;16.00;59.30
28247;DHT22;34504;53.178;22.058;2022-09-02T09:18:01;16.10;59.70
28247;DHT22;34504;53.178;22.058;2022-09-02T09:20:33;16.20;61.20
28247;DHT22;34504;53.178;22.058;2022-09-02T09:23:04;16.30;59.90
28247;DHT22;34504;53.178;22.058;2022-09-02T09:25:34;16.30;58.80
28247;DHT22;34504;53.178;22.058;2022-09-02T09:28:03;16.30;59.20
28247;DHT22;34504;53.178;22.058;2022-09-02T09:30:32;16.40;59.80
28247;DHT22;34504;53.178;22.058;2022-09-02T09:33:00;16.40;59.80
28247;DHT22;34504;53.178;22.058;2022-09-02T09:35:45;16.40;60.30
28247;DHT22;34504;53.178;22.058;2022-09-02T09:38:14;16.50;61.00
28247;DHT22;34504;53.178;22.058;2022-09-02T09:40:43;16.50;59.00
28247;DHT22;34504;53.178;22.058;2022-09-02T09:43:13;16.60;61.30
28247;DHT22;34504;53.178;22.058;2022-09-02T09:45:44;16.60;60.40
28247;DHT22;34504;53.178;22.058;2022-09-02T09:50:44;16.70;58.80
28247;DHT22;34504;53.178;22.058;2022-09-02T09:53:16;16.70;60.40
28247;DHT22;34504;53.178;22.058;2022-09-02T09:55:55;16.80;59.60
28247;DHT22;34504;53.178;22.058;2022-09-02T09:58:46;16.80;59.40
28247;DHT22;34504;53.178;22.058;2022-09-02T10:03:52;16.90;59.70
28247;DHT22;34504;53.178;22.058;2022-09-02T10:06:24;16.90;60.00
28247;DHT22;34504;53.178;22.058;2022-09-02T10:09:04;16.90;57.80
28247;DHT22;34504;53.178;22.058;2022-09-02T10:11:33;17.00;56.80
28247;DHT22;34504;53.178;22.058;2022-09-02T10:14:03;17.00;57.60
28247;DHT22;34504;53.178;22.058;2022-09-02T10:26:48;17.10;57.60
28247;DHT22;34504;53.178;22.058;2022-09-02T10:37:35;17.30;57.50
28247;DHT22;34504;53.178;22.058;2022-09-02T10:40:13;17.30;56.80
28247;DHT22;34504;53.178;22.058;2022-09-02T10:47:41;17.40;55.40
28247;DHT22;34504;53.178;22.058;2022-09-02T10:50:21;17.40;54.30
28247;DHT22;34504;53.178;22.058;2022-09-02T11:00:20;17.60;53.90
28247;DHT22;34504;53.178;22.058;2022-09-02T11:02:50;17.60;53.80
28247;DHT22;34504;53.178;22.058;2022-09-02T11:05:24;17.70;54.20
28247;DHT22;34504;53.178;22.058;2022-09-02T11:07:55;17.70;53.50
28247;DHT22;34504;53.178;22.058;2022-09-02T11:10:33;17.80;54.60
28247;DHT22;34504;53.178;22.058;2022-09-02T11:13:06;17.80;55.30
28247;DHT22;34504;53.178;22.058;2022-09-02T11:18:22;17.90;51.10
28247;DHT22;34504;53.178;22.058;2022-09-02T11:21:02;17.90;51.60
28247;DHT22;34504;53.178;22.058;2022-09-02T11:23:45;18.00;51.80
28247;DHT22;34504;53.178;22.058;2022-09-02T11:26:20;18.00;52.30
28247;DHT22;34504;53.178;22.058;2022-09-02T11:28:53;18.10;53.80
28247;DHT22;34504;53.178;22.058;2022-09-02T11:36:48;18.20;52.30
28247;DHT22;34504;53.178;22.058;2022-09-02T11:39:19;18.20;49.00
28247;DHT22;34504;53.178;22.058;2022-09-02T11:44:47;18.20;51.80
28247;DHT22;34504;53.178;22.058;2022-09-02T11:57:37;18.30;51.20
28247;DHT22;34504;53.178;22.058;2022-09-02T12:00:10;18.30;51.10
28247;DHT22;34504;53.178;22.058;2022-09-02T12:02:40;18.30;51.20
28247;DHT22;34504;53.178;22.058;2022-09-02T12:08:01;18.20;50.40
28247;DHT22;34504;53.178;22.058;2022-09-02T12:11:32;18.20;50.40
28247;DHT22;34504;53.178;22.058;2022-09-02T12:13:41;18.20;51.10
28247;DHT22;34504;53.178;22.058;2022-09-02T12:21:15;18.40;50.60
28247;DHT22;34504;53.178;22.058;2022-09-02T12:26:21;18.40;50.60
28247;DHT22;34504;53.178;22.058;2022-09-02T12:28:50;18.40;51.10
28247;DHT22;34504;53.178;22.058;2022-09-02T12:33:55;18.50;52.50
28247;DHT22;34504;53.178;22.058;2022-09-02T12:47:07;18.70;51.50
28247;DHT22;34504;53.178;22.058;2022-09-02T12:49:40;18.80;50.10
28247;DHT22;34504;53.178;22.058;2022-09-02T12:54:56;18.80;50.00
28247;DHT22;34504;53.178;22.058;2022-09-02T12:57:39;18.90;50.30
28247;DHT22;34504;53.178;22.058;2022-09-02T13:00:12;19.00;49.40
28247;DHT22;34504;53.178;22.058;2022-09-02T13:07:48;19.10;48.80
28247;DHT22;34504;53.178;22.058;2022-09-02T13:10:48;19.20;48.70
28247;DHT22;34504;53.178;22.058;2022-09-02T13:21:32;19.20;47.60
28247;DHT22;34504;53.178;22.058;2022-09-02T13:34:42;19.40;47.60
28247;DHT22;34504;53.178;22.058;2022-09-02T13:39:54;19.40;48.00
28247;DHT22;34504;53.178;22.058;2022-09-02T13:42:24;19.40;48.00
28247;DHT22;34504;53.178;22.058;2022-09-02T13:45:12;19.40;47.80
28247;DHT22;34504;53.178;22.058;2022-09-02T13:47:41;19.30;49.40
28247;DHT22;34504;53.178;22.058;2022-09-02T13:50:10;19.50;50.00
28247;DHT22;34504;53.178;22.058;2022-09-02T13:52:39;19.50;49.30
28247;DHT22;34504;53.178;22.058;2022-09-02T13:55:29;19.50;48.60
28247;DHT22;34504;53.178;22.058;2022-09-02T13:58:02;19.50;47.40
28247;DHT22;34504;53.178;22.058;2022-09-02T14:00:35;19.50;47.60
28247;DHT22;34504;53.178;22.058;2022-09-02T14:05:34;19.50;47.80
28247;DHT22;34504;53.178;22.058;2022-09-02T14:08:04;19.50;48.40
28247;DHT22;34504;53.178;22.058;2022-09-02T14:10:33;19.50;49.30
28247;DHT22;34504;53.178;22.058;2022-09-02T14:13:03;19.50;49.60
28247;DHT22;34504;53.178;22.058;2022-09-02T14:15:32;19.50;49.20
28247;DHT22;34504;53.178;22.058;2022-09-02T14:18:07;19.50;49.00
28247;DHT22;34504;53.178;22.058;2022-09-02T14:20:36;19.50;49.60
28247;DHT22;34504;53.178;22.058;2022-09-02T14:23:05;19.50;50.10
28247;DHT22;34504;53.178;22.058;2022-09-02T14:25:37;19.40;49.80
28247;DHT22;34504;53.178;22.058;2022-09-02T14:28:08;19.50;49.20
28247;DHT22;34504;53.178;22.058;2022-09-02T14:30:40;19.40;49.50
28247;DHT22;34504;53.178;22.058;2022-09-02T14:33:16;19.40;49.00
28247;DHT22;34504;53.178;22.058;2022-09-02T14:35:55;19.40;48.50
28247;DHT22;34504;53.178;22.058;2022-09-02T14:38:24;19.40;48.40
28247;DHT22;34504;53.178;22.058;2022-09-02T14:40:59;19.40;48.70
28247;DHT22;34504;53.178;22.058;2022-09-02T14:43:33;19.30;48.80
28247;DHT22;34504;53.178;22.058;2022-09-02T14:46:05;19.30;48.90
28247;DHT22;34504;53.178;22.058;2022-09-02T14:48:38;19.40;49.00
28247;DHT22;34504;53.178;22.058;2022-09-02T14:51:09;19.30;49.40
28247;DHT22;34504;53.178;22.058;2022-09-02T14:53:38;19.30;49.60
28247;DHT22;34504;53.178;22.058;2022-09-02T14:56:13;19.20;50.10
28247;DHT22;34504;53.178;22.058;2022-09-02T14:58:42;19.20;50.80
28247;DHT22;34504;53.178;22.058;2022-09-02T15:01:10;19.10;51.00
28247;DHT22;34504;53.178;22.058;2022-09-02T15:03:40;19.00;51.40
28247;DHT22;34504;53.178;22.058;2022-09-02T15:06:11;19.00;51.60
28247;DHT22;34504;53.178;22.058;2022-09-02T15:08:42;18.90;51.60
28247;DHT22;34504;53.178;22.058;2022-09-02T15:11:11;18.80;52.10
28247;DHT22;34504;53.178;22.058;2022-09-02T15:13:43;18.80;51.80
28247;DHT22;34504;53.178;22.058;2022-09-02T15:16:11;18.80;51.00
28247;DHT22;34504;53.178;22.058;2022-09-02T15:18:39;18.80;51.10
28247;DHT22;34504;53.178;22.058;2022-09-02T15:21:07;18.80;51.20
28247;DHT22;34504;53.178;22.058;2022-09-02T15:23:36;18.80;50.50
28247;DHT22;34504;53.178;22.058;2022-09-02T15:26:07;18.80;51.40
28247;DHT22;34504;53.178;22.058;2022-09-02T15:28:35;18.80;49.50
28247;DHT22;34504;53.178;22.058;2022-09-02T15:31:05;18.80;50.20
28247;DHT22;34504;53.178;22.058;2022-09-02T15:33:33;18.80;49.40
28247;DHT22;34504;53.178;22.058;2022-09-02T15:36:09;18.80;50.30
28247;DHT22;34504;53.178;22.058;2022-09-02T15:38:38;18.80;50.40
28247;DHT22;34504;53.178;22.058;2022-09-02T15:41:09;18.80;50.50
28247;DHT22;34504;53.178;22.058;2022-09-02T15:43:37;18.80;50.40
28247;DHT22;34504;53.178;22.058;2022-09-02T15:46:16;18.80;50.40
28247;DHT22;34504;53.178;22.058;2022-09-02T15:48:45;18.80;49.70
28247;DHT22;34504;53.178;22.058;2022-09-02T15:51:14;18.90;50.10
28247;DHT22;34504;53.178;22.058;2022-09-02T15:53:43;18.90;50.10
28247;DHT22;34504;53.178;22.058;2022-09-02T15:56:19;18.90;50.60
28247;DHT22;34504;53.178;22.058;2022-09-02T15:58:48;18.90;50.20
28247;DHT22;34504;53.178;22.058;2022-09-02T16:01:20;18.90;49.80
28247;DHT22;34504;53.178;22.058;2022-09-02T16:03:51;18.90;49.90
28247;DHT22;34504;53.178;22.058;2022-09-02T16:06:20;18.90;50.00
28247;DHT22;34504;53.178;22.058;2022-09-02T16:08:48;18.90;50.90
28247;DHT22;34504;53.178;22.058;2022-09-02T16:11:17;18.90;50.80
28247;DHT22;34504;53.178;22.058;2022-09-02T16:13:46;18.90;50.80
28247;DHT22;34504;53.178;22.058;2022-09-02T16:16:14;18.90;50.80
28247;DHT22;34504;53.178;22.058;2022-09-02T16:18:43;18.90;51.60
28247;DHT22;34504;53.178;22.058;2022-09-02T16:21:11;18.80;51.50
28247;DHT22;34504;53.178;22.058;2022-09-02T16:23:40;18.80;52.90
28247;DHT22;34504;53.178;22.058;2022-09-02T16:26:09;18.80;52.90
28247;DHT22;34504;53.178;22.058;2022-09-02T16:28:39;18.70;53.60
28247;DHT22;34504;53.178;22.058;2022-09-02T16:31:08;18.70;53.80
28247;DHT22;34504;53.178;22.058;2022-09-02T16:33:37;18.60;54.20
28247;DHT22;34504;53.178;22.058;2022-09-02T16:36:05;18.50;54.40
28247;DHT22;34504;53.178;22.058;2022-09-02T16:38:34;18.50;54.70
28247;DHT22;34504;53.178;22.058;2022-09-02T16:41:02;18.30;54.80
28247;DHT22;34504;53.178;22.058;2022-09-02T16:43:30;18.30;55.20
28247;DHT22;34504;53.178;22.058;2022-09-02T16:46:02;18.30;55.50
28247;DHT22;34504;53.178;22.058;2022-09-02T16:48:31;18.20;55.70
28247;DHT22;34504;53.178;22.058;2022-09-02T16:51:02;18.20;56.20
28247;DHT22;34504;53.178;22.058;2022-09-02T16:53:31;18.20;56.30
28247;DHT22;34504;53.178;22.058;2022-09-02T16:55:59;18.10;56.70
28247;DHT22;34504;53.178;22.058;2022-09-02T16:58:27;18.10;56.90
28247;DHT22;34504;53.178;22.058;2022-09-02T17:00:56;18.00;57.30
28247;DHT22;34504;53.178;22.058;2022-09-02T17:03:24;17.90;57.60
28247;DHT22;34504;53.178;22.058;2022-09-02T17:05:52;17.90;58.10
28247;DHT22;34504;53.178;22.058;2022-09-02T17:08:20;17.90;58.20
28247;DHT22;34504;53.178;22.058;2022-09-02T17:10:47;17.80;58.40
28247;DHT22;34504;53.178;22.058;2022-09-02T17:13:15;17.80;58.90
28247;DHT22;34504;53.178;22.058;2022-09-02T17:15:43;17.80;59.10
28247;DHT22;34504;53.178;22.058;2022-09-02T17:18:11;17.80;59.20
28247;DHT22;34504;53.178;22.058;2022-09-02T17:20:39;17.70;59.50
28247;DHT22;34504;53.178;22.058;2022-09-02T17:23:07;17.70;59.60
28247;DHT22;34504;53.178;22.058;2022-09-02T17:25:35;17.70;59.80
28247;DHT22;34504;53.178;22.058;2022-09-02T17:28:02;17.60;60.20
28247;DHT22;34504;53.178;22.058;2022-09-02T17:30:30;17.60;60.10
28247;DHT22;34504;53.178;22.058;2022-09-02T17:32:58;17.60;60.40
28247;DHT22;34504;53.178;22.058;2022-09-02T17:35:26;17.60;61.10
28247;DHT22;34504;53.178;22.058;2022-09-02T17:37:54;17.50;61.40
28247;DHT22;34504;53.178;22.058;2022-09-02T17:40:22;17.50;62.00
28247;DHT22;34504;53.178;22.058;2022-09-02T17:43:09;17.50;62.20
28247;DHT22;34504;53.178;22.058;2022-09-02T17:45:36;17.40;62.40
28247;DHT22;34504;53.178;22.058;2022-09-02T17:48:04;17.30;62.60
28247;DHT22;34504;53.178;22.058;2022-09-02T17:50:52;17.30;63.10
28247;DHT22;34504;53.178;22.058;2022-09-02T17:53:20;17.30;63.10